Time;durP1;ratioP1;P1;durP2;ratioP2;P2;SDS_P1;SDS_P2;PMS_P1;PMS_P2;Temp;Humidity;BMP_temperature;BMP_pressure;BME280_temperature;BME280_humidity;BME280_pressure;Samples;Min_cycle;Max_cycle;Signal;HPM_P1;HPM_P2
2022/07/24 00:01:49;;;;;;;6.38;5.78;;;;;;;;;;5068837;28;20098;-75
2022/07/24 00:04:15;;;;;;;6.47;5.88;;;;;;;;;;5064426;28;20032;-74
2022/07/24 00:06:40;;;;;;;7.00;6.10;;;;;;;;;;5071128;28;20025;-75
2022/07/24 00:09:06;;;;;;;8.85;5.70;;;;;;;;;;5071554;28;20108;-75
2022/07/24 00:11:32;;;;;;;6.28;5.68;;;;;;;;;;5071431;28;20413;-75
2022/07/24 00:13:57;;;;;;;6.05;5.45;;;;;;;;;;5069524;28;20028;-74
2022/07/24 00:16:23;;;;;;;8.30;5.28;;;;;;;;;;5070790;28;20504;-75
2022/07/24 00:18:48;;;;;;;7.15;5.72;;;;;;;;;;5070018;28;20037;-75
2022/07/24 00:21:14;;;;;;;6.63;5.93;;;;;;;;;;5065228;28;20083;-75
2022/07/24 00:23:39;;;;;;;7.45;6.05;;;;;;;;;;5067609;28;20029;-75
2022/07/24 00:26:05;;;;;;;7.18;5.57;;;;;;;;;;5070901;28;20056;-75
2022/07/24 00:28:30;;;;;;;8.13;6.15;;;;;;;;;;5071128;28;20037;-74
2022/07/24 00:30:56;;;;;;;7.53;6.10;;;;;;;;;;5069760;28;20035;-75
2022/07/24 00:33:21;;;;;;;6.97;6.07;;;;;;;;;;5070391;28;20485;-74
2022/07/24 00:35:47;;;;;;;6.88;5.75;;;;;;;;;;5071061;28;20039;-75
2022/07/24 00:38:12;;;;;;;6.72;5.85;;;;;;;;;;5070243;28;20103;-75
2022/07/24 00:40:37;;;;;;;6.43;5.80;;;;;;;;;;5070952;28;20384;-74
2022/07/24 00:43:03;;;;;;;7.82;5.80;;;;;;;;;;5070151;28;20543;-75
2022/07/24 00:45:30;;;;;;;7.60;6.00;;;;;;;;;;5070556;28;20386;-75
2022/07/24 00:47:56;;;;;;;7.32;5.90;;;;;;;;;;5071434;28;20043;-75
2022/07/24 00:50:21;;;;;;;7.05;6.00;;;;;;;;;;5070390;28;20024;-75
2022/07/24 00:52:47;;;;;;;7.55;6.10;;;;;;;;;;5067908;28;20036;-75
2022/07/24 00:55:12;;;;;;;7.47;5.75;;;;;;;;;;5070362;28;20032;-73
2022/07/24 00:57:38;;;;;;;7.50;5.78;;;;;;;;;;5070340;28;20028;-76
2022/07/24 01:00:06;;;;;;;9.90;5.95;;;;;;;;;;5070225;28;20024;-75
2022/07/24 01:02:32;;;;;;;6.93;6.22;;;;;;;;;;5070315;28;20126;-75
2022/07/24 01:04:57;;;;;;;7.03;6.18;;;;;;;;;;5070094;28;20107;-75
2022/07/24 01:07:23;;;;;;;7.07;6.32;;;;;;;;;;5070175;28;20401;-75
2022/07/24 01:09:49;;;;;;;8.80;6.25;;;;;;;;;;5069902;28;20033;-76
2022/07/24 01:12:14;;;;;;;8.27;6.15;;;;;;;;;;5070318;28;20461;-75
2022/07/24 01:14:39;;;;;;;7.45;6.40;;;;;;;;;;5070240;28;20397;-75
2022/07/24 01:17:05;;;;;;;7.88;6.13;;;;;;;;;;5085867;22;20072;-71
2022/07/24 01:19:30;;;;;;;7.13;6.20;;;;;;;;;;5049183;28;20068;-71
2022/07/24 01:21:56;;;;;;;6.75;6.05;;;;;;;;;;5048213;28;20108;-71
2022/07/24 01:24:21;;;;;;;9.27;6.13;;;;;;;;;;5050107;28;20029;-72
2022/07/24 01:26:47;;;;;;;6.82;6.00;;;;;;;;;;5049878;28;20098;-71
2022/07/24 01:29:14;;;;;;;7.53;6.43;;;;;;;;;;5049719;28;20024;-71
2022/07/24 01:31:40;;;;;;;7.93;6.25;;;;;;;;;;5049072;28;20062;-71
2022/07/24 01:34:05;;;;;;;7.05;6.35;;;;;;;;;;5041502;28;20091;-71
2022/07/24 01:36:31;;;;;;;8.38;6.60;;;;;;;;;;5047755;28;20059;-71
2022/07/24 01:38:56;;;;;;;7.47;6.68;;;;;;;;;;5048792;28;20032;-71
2022/07/24 01:41:22;;;;;;;9.43;6.68;;;;;;;;;;5048151;28;20032;-72
2022/07/24 01:43:47;;;;;;;8.48;6.80;;;;;;;;;;5048084;28;20029;-71
2022/07/24 01:46:12;;;;;;;7.22;6.53;;;;;;;;;;5049793;28;20029;-71
2022/07/24 01:48:40;;;;;;;7.38;6.68;;;;;;;;;;5046094;28;20031;-71
2022/07/24 01:51:05;;;;;;;7.72;5.55;;;;;;;;;;5040081;28;20501;-71
2022/07/24 01:53:30;;;;;;;7.32;6.20;;;;;;;;;;5047260;28;20033;-71
2022/07/24 01:55:56;;;;;;;7.47;6.63;;;;;;;;;;5049083;28;20545;-71
2022/07/24 01:58:22;;;;;;;7.22;6.47;;;;;;;;;;5049019;28;20372;-71
2022/07/24 02:00:47;;;;;;;7.47;6.78;;;;;;;;;;5049368;28;20429;-71
2022/07/24 02:03:12;;;;;;;7.53;6.45;;;;;;;;;;5049010;28;20067;-71
2022/07/24 02:05:38;;;;;;;7.28;6.22;;;;;;;;;;5047563;28;20391;-71
2022/07/24 02:08:03;;;;;;;7.68;6.22;;;;;;;;;;5046834;28;20042;-71
2022/07/24 02:10:35;;;;;;;6.57;5.90;;;;;;;;;;5085528;27;20443;-70
2022/07/24 02:13:01;;;;;;;6.15;5.60;;;;;;;;;;5066583;28;20049;-70
2022/07/24 02:15:27;;;;;;;10.15;7.40;;;;;;;;;;5065624;28;20025;-71
2022/07/24 02:17:57;;;;;;;7.88;6.82;;;;;;;;;;5067004;28;20116;-70
2022/07/24 02:20:23;;;;;;;8.73;7.05;;;;;;;;;;5065452;28;20071;-71
2022/07/24 02:22:49;;;;;;;8.27;6.97;;;;;;;;;;5078190;22;20513;-75
2022/07/24 02:25:14;;;;;;;8.02;6.43;;;;;;;;;;5064586;28;20094;-73
2022/07/24 02:27:40;;;;;;;7.40;6.53;;;;;;;;;;5065311;28;20032;-74
2022/07/24 02:30:08;;;;;;;6.97;5.97;;;;;;;;;;5044964;28;20022;-74
2022/07/24 02:32:33;;;;;;;8.57;6.88;;;;;;;;;;5061274;28;20024;-74
2022/07/24 02:34:59;;;;;;;7.53;6.47;;;;;;;;;;5065063;28;20107;-74
2022/07/24 02:37:24;;;;;;;9.25;7.05;;;;;;;;;;5065147;28;20032;-72
2022/07/24 02:39:49;;;;;;;8.60;6.50;;;;;;;;;;5064822;28;20027;-74
2022/07/24 02:42:14;;;;;;;12.35;6.97;;;;;;;;;;5064976;28;20021;-74
2022/07/24 02:44:40;;;;;;;10.10;6.82;;;;;;;;;;5064754;28;20563;-73
2022/07/24 02:47:05;;;;;;;9.00;7.28;;;;;;;;;;5053011;28;20041;-73
2022/07/24 02:49:30;;;;;;;7.13;6.43;;;;;;;;;;5044647;28;20091;-73
2022/07/24 02:51:56;;;;;;;7.65;6.85;;;;;;;;;;5044948;28;20032;-74
2022/07/24 02:54:21;;;;;;;11.02;6.63;;;;;;;;;;5056914;28;20127;-74
2022/07/24 02:56:46;;;;;;;8.30;6.88;;;;;;;;;;5064617;28;20021;-73
2022/07/24 02:59:12;;;;;;;8.32;7.05;;;;;;;;;;5064522;28;20463;-73
2022/07/24 03:01:37;;;;;;;8.27;6.70;;;;;;;;;;5063318;28;20060;-74
2022/07/24 03:04:02;;;;;;;8.32;6.82;;;;;;;;;;5064490;28;20024;-74
2022/07/24 03:06:28;;;;;;;7.72;6.90;;;;;;;;;;5064598;28;20029;-74
2022/07/24 03:08:53;;;;;;;7.68;6.88;;;;;;;;;;5063501;28;20032;-73
2022/07/24 03:11:18;;;;;;;8.38;6.93;;;;;;;;;;5064680;28;20025;-74
2022/07/24 03:13:44;;;;;;;7.57;6.70;;;;;;;;;;5064416;28;20097;-74
2022/07/24 03:16:09;;;;;;;7.88;7.07;;;;;;;;;;5063264;28;20028;-73
2022/07/24 03:18:35;;;;;;;9.75;7.10;;;;;;;;;;5064084;28;20172;-73
2022/07/24 03:21:00;;;;;;;7.90;7.10;;;;;;;;;;5055367;28;20025;-73
2022/07/24 03:23:25;;;;;;;8.45;7.13;;;;;;;;;;5050648;28;20406;-73
2022/07/24 03:25:52;;;;;;;8.00;6.75;;;;;;;;;;5049503;28;20056;-74
2022/07/24 03:28:17;;;;;;;9.27;7.03;;;;;;;;;;5050643;28;20040;-73
2022/07/24 03:30:43;;;;;;;7.53;6.82;;;;;;;;;;5049380;28;20045;-73
2022/07/24 03:33:08;;;;;;;7.90;7.05;;;;;;;;;;5050077;28;20425;-73
2022/07/24 03:35:33;;;;;;;8.93;7.22;;;;;;;;;;5049190;28;20037;-73
2022/07/24 03:37:59;;;;;;;7.10;6.45;;;;;;;;;;5050567;28;20029;-74
2022/07/24 03:40:24;;;;;;;7.70;6.70;;;;;;;;;;5050685;28;20403;-72
2022/07/24 03:42:49;;;;;;;7.57;6.78;;;;;;;;;;5050577;28;20082;-74
2022/07/24 03:45:15;;;;;;;9.88;7.38;;;;;;;;;;5049366;28;20099;-73
2022/07/24 03:47:40;;;;;;;7.57;6.38;;;;;;;;;;5050529;28;20024;-73
2022/07/24 03:50:06;;;;;;;9.20;7.32;;;;;;;;;;5049174;28;20033;-73
2022/07/24 03:52:31;;;;;;;8.82;6.93;;;;;;;;;;5050140;28;20397;-73
2022/07/24 03:54:56;;;;;;;8.27;7.00;;;;;;;;;;5050344;28;20624;-73
2022/07/24 03:57:22;;;;;;;8.57;7.22;;;;;;;;;;5050277;28;20510;-72
2022/07/24 03:59:47;;;;;;;7.80;6.85;;;;;;;;;;5049501;28;20028;-73
2022/07/24 04:02:13;;;;;;;8.50;6.47;;;;;;;;;;5050196;28;20023;-73
2022/07/24 04:04:38;;;;;;;10.02;7.20;;;;;;;;;;5050239;28;20060;-74
2022/07/24 04:07:03;;;;;;;10.35;6.53;;;;;;;;;;5050164;28;20032;-73
2022/07/24 04:09:29;;;;;;;7.63;6.70;;;;;;;;;;5050015;28;20039;-73
2022/07/24 04:11:54;;;;;;;9.07;6.80;;;;;;;;;;5047831;28;20451;-73
2022/07/24 04:14:19;;;;;;;7.95;7.15;;;;;;;;;;5048991;28;20020;-74
2022/07/24 04:16:45;;;;;;;8.13;7.28;;;;;;;;;;5049333;28;20386;-73
2022/07/24 04:19:10;;;;;;;7.80;6.82;;;;;;;;;;5045962;28;20307;-73
2022/07/24 04:21:35;;;;;;;8.20;7.15;;;;;;;;;;5049779;28;20445;-72
2022/07/24 04:24:01;;;;;;;9.73;7.18;;;;;;;;;;5046825;28;20032;-73
2022/07/24 04:26:26;;;;;;;8.35;7.43;;;;;;;;;;5048650;28;20033;-73
2022/07/24 04:28:53;;;;;;;8.70;6.85;;;;;;;;;;5049368;28;20480;-75
2022/07/24 04:31:18;;;;;;;8.40;7.03;;;;;;;;;;5049621;28;20028;-74
2022/07/24 04:33:43;;;;;;;8.57;6.80;;;;;;;;;;5048731;28;20028;-73
2022/07/24 04:36:09;;;;;;;9.57;8.00;;;;;;;;;;5049658;28;20028;-72
2022/07/24 04:38:34;;;;;;;9.50;7.05;;;;;;;;;;5048295;28;20029;-72
2022/07/24 04:41:00;;;;;;;9.30;6.85;;;;;;;;;;5048541;28;20509;-73
2022/07/24 04:43:25;;;;;;;8.95;7.22;;;;;;;;;;5049269;28;20029;-73
2022/07/24 04:45:51;;;;;;;7.97;6.85;;;;;;;;;;5048392;28;20111;-73
2022/07/24 04:48:16;;;;;;;10.27;7.10;;;;;;;;;;5049000;28;20461;-74
2022/07/24 04:50:41;;;;;;;8.35;7.55;;;;;;;;;;5049292;28;20029;-73
2022/07/24 04:53:07;;;;;;;8.32;7.47;;;;;;;;;;5048126;28;20072;-72
2022/07/24 04:55:32;;;;;;;8.13;7.07;;;;;;;;;;5048068;28;20120;-73
2022/07/24 04:57:57;;;;;;;8.25;6.85;;;;;;;;;;5048876;28;20029;-73
2022/07/24 05:00:23;;;;;;;8.32;6.75;;;;;;;;;;5049566;28;20033;-72
2022/07/24 05:02:48;;;;;;;11.02;6.53;;;;;;;;;;5049097;28;20025;-73
2022/07/24 05:05:13;;;;;;;8.32;6.68;;;;;;;;;;5049128;28;20541;-73
2022/07/24 05:07:39;;;;;;;7.28;6.57;;;;;;;;;;5049532;28;20043;-73
2022/07/24 05:10:05;;;;;;;7.68;6.85;;;;;;;;;;5047612;28;20055;-74
2022/07/24 05:12:30;;;;;;;7.85;6.80;;;;;;;;;;5049208;28;20137;-74
2022/07/24 05:14:56;;;;;;;7.90;6.97;;;;;;;;;;5047582;28;20238;-74
2022/07/24 05:17:21;;;;;;;8.63;7.15;;;;;;;;;;5048917;28;20032;-73
2022/07/24 05:19:46;;;;;;;7.20;6.50;;;;;;;;;;5048611;28;20390;-73
2022/07/24 05:22:12;;;;;;;8.80;7.82;;;;;;;;;;5048618;28;20194;-73
2022/07/24 05:24:37;;;;;;;8.00;7.20;;;;;;;;;;5047487;28;20033;-73
2022/07/24 05:27:02;;;;;;;9.85;7.75;;;;;;;;;;5047361;28;20031;-73
2022/07/24 05:29:28;;;;;;;8.95;7.53;;;;;;;;;;5048127;28;20544;-72
2022/07/24 05:31:54;;;;;;;10.05;7.35;;;;;;;;;;5048592;28;20036;-74
2022/07/24 05:34:20;;;;;;;8.95;7.55;;;;;;;;;;5047279;28;20025;-73
2022/07/24 05:36:45;;;;;;;9.18;8.02;;;;;;;;;;5049197;28;20386;-72
2022/07/24 05:39:11;;;;;;;8.65;7.03;;;;;;;;;;5042835;28;20048;-73
2022/07/24 05:41:36;;;;;;;8.27;7.47;;;;;;;;;;5044155;28;20440;-72
2022/07/24 05:44:01;;;;;;;9.52;7.90;;;;;;;;;;5045170;28;20029;-73
2022/07/24 05:46:27;;;;;;;9.52;7.82;;;;;;;;;;5045242;28;20487;-73
2022/07/24 05:48:52;;;;;;;9.57;7.82;;;;;;;;;;5046426;28;20056;-73
2022/07/24 05:51:17;;;;;;;10.05;8.02;;;;;;;;;;5041486;28;20025;-73
2022/07/24 05:53:43;;;;;;;8.93;7.80;;;;;;;;;;5043996;28;20033;-72
2022/07/24 05:56:08;;;;;;;9.50;8.05;;;;;;;;;;5043507;28;20025;-73
2022/07/24 05:58:35;;;;;;;8.60;7.70;;;;;;;;;;5044399;28;20033;-74
2022/07/24 06:01:00;;;;;;;10.32;7.65;;;;;;;;;;5045295;28;20024;-74
2022/07/24 06:03:26;;;;;;;10.18;7.40;;;;;;;;;;5034334;28;20430;-73
2022/07/24 06:05:51;;;;;;;9.20;7.47;;;;;;;;;;5029672;28;20503;-71
2022/07/24 06:08:17;;;;;;;9.70;7.88;;;;;;;;;;5050168;28;20468;-74
2022/07/24 06:10:42;;;;;;;8.63;7.70;;;;;;;;;;5044950;28;20033;-74
2022/07/24 06:13:08;;;;;;;8.70;7.28;;;;;;;;;;5051951;28;20032;-74
2022/07/24 06:15:33;;;;;;;8.50;6.90;;;;;;;;;;5044690;28;20029;-74
2022/07/24 06:17:58;;;;;;;8.15;7.30;;;;;;;;;;5045041;28;20083;-74
2022/07/24 06:20:24;;;;;;;8.80;7.38;;;;;;;;;;5043848;28;20269;-72
2022/07/24 06:22:49;;;;;;;8.35;7.35;;;;;;;;;;5042567;28;20366;-76
2022/07/24 06:25:16;;;;;;;7.43;6.60;;;;;;;;;;5036523;28;20450;-75
2022/07/24 06:27:43;;;;;;;8.20;6.70;;;;;;;;;;5042811;28;20107;-74
2022/07/24 06:30:16;;;;;;;7.13;6.28;;;;;;;;;;5040890;28;20025;-74
2022/07/24 06:32:42;;;;;;;7.57;6.88;;;;;;;;;;5047026;28;20057;-74
2022/07/24 06:35:07;;;;;;;7.22;6.50;;;;;;;;;;5027954;28;20053;-74
2022/07/24 06:37:32;;;;;;;8.75;6.68;;;;;;;;;;5036206;28;20115;-75
2022/07/24 06:39:58;;;;;;;6.75;6.05;;;;;;;;;;5043063;28;20025;-73
2022/07/24 06:42:23;;;;;;;7.38;5.93;;;;;;;;;;5045171;28;20036;-74
2022/07/24 06:44:49;;;;;;;7.05;6.35;;;;;;;;;;5046988;28;20029;-74
2022/07/24 06:47:14;;;;;;;8.07;6.47;;;;;;;;;;5047707;28;20363;-74
2022/07/24 06:49:39;;;;;;;9.52;7.20;;;;;;;;;;5046896;28;20032;-74
2022/07/24 06:52:05;;;;;;;7.75;6.80;;;;;;;;;;5035424;28;20040;-74
2022/07/24 06:54:30;;;;;;;7.78;6.05;;;;;;;;;;5045002;28;20123;-75
2022/07/24 06:56:56;;;;;;;7.03;6.18;;;;;;;;;;5047896;28;20036;-74
2022/07/24 06:59:21;;;;;;;7.30;6.32;;;;;;;;;;5050616;28;20056;-74
2022/07/24 07:01:46;;;;;;;8.23;6.47;;;;;;;;;;5046266;28;20037;-74
2022/07/24 07:04:12;;;;;;;10.10;6.10;;;;;;;;;;5050334;28;20033;-74
2022/07/24 07:06:37;;;;;;;6.70;6.10;;;;;;;;;;5049304;28;20037;-75
2022/07/24 07:09:02;;;;;;;8.98;6.28;;;;;;;;;;5048623;28;20029;-74
2022/07/24 07:11:28;;;;;;;10.75;6.90;;;;;;;;;;5050142;28;20406;-75
2022/07/24 07:13:53;;;;;;;8.25;6.57;;;;;;;;;;5040492;28;20394;-75
2022/07/24 07:16:18;;;;;;;6.57;5.75;;;;;;;;;;5042766;28;20112;-75
2022/07/24 07:18:44;;;;;;;6.63;5.93;;;;;;;;;;5050022;28;20075;-74
2022/07/24 07:21:09;;;;;;;7.28;5.85;;;;;;;;;;5049852;28;20457;-75
2022/07/24 07:23:34;;;;;;;6.65;5.75;;;;;;;;;;5049051;28;20066;-75
2022/07/24 07:26:00;;;;;;;7.40;5.82;;;;;;;;;;5050722;28;20028;-75
2022/07/24 07:28:25;;;;;;;6.88;5.95;;;;;;;;;;5043745;28;20486;-75
2022/07/24 07:30:50;;;;;;;6.55;5.65;;;;;;;;;;5042859;28;20033;-74
2022/07/24 07:33:16;;;;;;;9.07;6.18;;;;;;;;;;5044526;28;20040;-75
2022/07/24 07:35:41;;;;;;;7.82;5.75;;;;;;;;;;5045389;28;20024;-75
2022/07/24 07:38:06;;;;;;;6.50;5.65;;;;;;;;;;5029591;28;20017;-74
2022/07/24 07:40:31;;;;;;;7.32;5.38;;;;;;;;;;5045155;28;20017;-75
2022/07/24 07:42:57;;;;;;;7.22;5.90;;;;;;;;;;5048102;28;20029;-74
2022/07/24 07:45:22;;;;;;;5.88;5.28;;;;;;;;;;5044071;28;20032;-76
2022/07/24 07:47:48;;;;;;;7.97;5.70;;;;;;;;;;5050197;28;20029;-76
2022/07/24 07:50:14;;;;;;;6.93;5.78;;;;;;;;;;5049073;28;20490;-75
2022/07/24 07:52:39;;;;;;;5.53;5.03;;;;;;;;;;5049576;28;20047;-75
2022/07/24 07:55:05;;;;;;;5.88;5.38;;;;;;;;;;5048380;28;20021;-75
2022/07/24 07:57:31;;;;;;;4.70;4.30;;;;;;;;;;5050901;28;20032;-76
2022/07/24 07:59:56;;;;;;;4.72;4.28;;;;;;;;;;5049393;28;20017;-77
2022/07/24 08:02:21;;;;;;;6.80;4.53;;;;;;;;;;5050455;28;20033;-75
2022/07/24 08:04:47;;;;;;;4.43;4.00;;;;;;;;;;5050219;28;20032;-76
2022/07/24 08:07:12;;;;;;;4.40;3.53;;;;;;;;;;5051186;28;20513;-77
2022/07/24 08:09:37;;;;;;;5.80;4.22;;;;;;;;;;5048800;28;20033;-74
2022/07/24 08:12:04;;;;;;;4.73;3.77;;;;;;;;;;5050132;28;20078;-75
2022/07/24 08:14:30;;;;;;;6.07;3.90;;;;;;;;;;5051197;28;20390;-77
2022/07/24 08:16:55;;;;;;;4.32;3.63;;;;;;;;;;5050821;28;20632;-78
2022/07/24 08:19:21;;;;;;;3.38;3.08;;;;;;;;;;5050881;28;20029;-77
2022/07/24 08:21:46;;;;;;;3.90;3.35;;;;;;;;;;5041212;28;20039;-77
2022/07/24 08:24:12;;;;;;;4.20;3.28;;;;;;;;;;5062755;28;20031;-78
2022/07/24 08:26:38;;;;;;;3.90;3.60;;;;;;;;;;5065200;28;20067;-78
2022/07/24 08:29:03;;;;;;;3.80;3.50;;;;;;;;;;5069987;28;20105;-79
2022/07/24 08:31:29;;;;;;;4.72;3.20;;;;;;;;;;5064283;28;20051;-81
2022/07/24 08:33:54;;;;;;;3.20;2.90;;;;;;;;;;5069029;28;20020;-79
2022/07/24 08:36:19;;;;;;;3.75;3.00;;;;;;;;;;5059622;28;20028;-78
2022/07/24 08:38:45;;;;;;;3.30;3.03;;;;;;;;;;5056537;28;20060;-78
2022/07/24 08:41:12;;;;;;;4.78;3.33;;;;;;;;;;5067263;28;20021;-78
2022/07/24 08:43:37;;;;;;;3.53;3.22;;;;;;;;;;5063329;28;20079;-78
2022/07/24 08:46:04;;;;;;;3.63;3.33;;;;;;;;;;5065198;28;20040;-78
2022/07/24 08:48:30;;;;;;;3.35;3.08;;;;;;;;;;5064853;28;20048;-79
2022/07/24 08:50:58;;;;;;;4.57;3.10;;;;;;;;;;5065870;28;20028;-78
2022/07/24 08:53:23;;;;;;;3.60;3.30;;;;;;;;;;5058331;28;20120;-78
2022/07/24 08:55:49;;;;;;;4.10;3.22;;;;;;;;;;5061197;28;20094;-79
2022/07/24 08:58:15;;;;;;;3.30;3.00;;;;;;;;;;5064601;28;20021;-79
2022/07/24 09:00:41;;;;;;;4.00;3.60;;;;;;;;;;5061869;28;20031;-78
2022/07/24 09:03:07;;;;;;;3.45;3.15;;;;;;;;;;5054940;28;20028;-78
2022/07/24 09:05:34;;;;;;;3.60;3.30;;;;;;;;;;5058172;28;20033;-78
2022/07/24 09:08:10;;;;;;;3.83;3.20;;;;;;;;;;5062703;28;20024;-79
2022/07/24 09:10:36;;;;;;;4.80;3.45;;;;;;;;;;5055219;28;20036;-79
2022/07/24 09:13:13;;;;;;;4.05;3.65;;;;;;;;;;5046926;28;20020;-80
2022/07/24 09:15:45;;;;;;;4.72;3.58;;;;;;;;;;5052684;28;20024;-78
2022/07/24 09:18:31;;;;;;;4.20;3.80;;;;;;;;;;5049209;28;20025;-79
2022/07/24 09:20:58;;;;;;;3.90;3.47;;;;;;;;;;5049666;28;20041;-79
2022/07/24 09:23:23;;;;;;;4.07;3.63;;;;;;;;;;5057365;28;20146;-78
2022/07/24 09:25:54;;;;;;;3.50;3.20;;;;;;;;;;5058961;28;20036;-77
2022/07/24 09:28:20;;;;;;;4.35;3.08;;;;;;;;;;5058722;28;20017;-79
2022/07/24 09:30:47;;;;;;;4.00;3.65;;;;;;;;;;5053623;28;20386;-80
2022/07/24 09:33:13;;;;;;;4.18;3.45;;;;;;;;;;5047390;28;20039;-77
2022/07/24 09:35:44;;;;;;;3.40;3.10;;;;;;;;;;5059734;28;20461;-79
2022/07/24 09:38:18;;;;;;;3.88;3.13;;;;;;;;;;5067158;28;20032;-79
2022/07/24 09:40:46;;;;;;;3.60;3.30;;;;;;;;;;5070687;28;20120;-77
2022/07/24 09:43:18;;;;;;;3.75;3.05;;;;;;;;;;5060746;28;20025;-77
2022/07/24 09:46:10;;;;;;;3.08;2.88;;;;;;;;;;5058779;28;20067;-79
2022/07/24 09:48:40;;;;;;;4.68;3.10;;;;;;;;;;5058491;28;20053;-79
2022/07/24 09:51:16;;;;;;;3.40;3.10;;;;;;;;;;5045624;28;20122;-79
2022/07/24 09:53:45;;;;;;;4.50;3.33;;;;;;;;;;5056267;28;20122;-76
2022/07/24 09:56:15;;;;;;;3.33;3.08;;;;;;;;;;5045840;28;20048;-78
2022/07/24 09:58:55;;;;;;;4.13;3.40;;;;;;;;;;5051346;28;20040;-78
2022/07/24 10:01:22;;;;;;;;;;;;;;;;;;5041163;28;20071;-79
2022/07/24 10:03:49;;;;;;;3.50;3.20;;;;;;;;;;5047262;28;20380;-78
2022/07/24 10:06:17;;;;;;;3.75;3.45;;;;;;;;;;5044793;28;20054;-78
2022/07/24 10:08:44;;;;;;;3.50;3.20;;;;;;;;;;5051872;28;20028;-77
2022/07/24 10:11:10;;;;;;;5.40;3.28;;;;;;;;;;5040757;28;20017;-77
2022/07/24 10:13:36;;;;;;;5.05;3.53;;;;;;;;;;5055879;28;20024;-78
2022/07/24 10:16:13;;;;;;;4.63;3.33;;;;;;;;;;5048987;28;20022;-78
2022/07/24 10:18:49;;;;;;;3.92;3.53;;;;;;;;;;5047304;28;20033;-78
2022/07/24 10:21:21;;;;;;;3.80;3.08;;;;;;;;;;5045017;28;20157;-78
2022/07/24 10:24:12;;;;;;;4.50;3.20;;;;;;;;;;5048351;28;20262;-79
2022/07/24 10:26:45;;;;;;;3.53;3.22;;;;;;;;;;5036719;28;20538;-78
2022/07/24 10:29:12;;;;;;;4.80;3.50;;;;;;;;;;5034690;28;20025;-79
2022/07/24 10:31:40;;;;;;;4.22;3.50;;;;;;;;;;5043894;28;20032;-79
2022/07/24 10:34:13;;;;;;;3.72;3.22;;;;;;;;;;5041156;28;20029;-76
2022/07/24 10:36:45;;;;;;;3.53;3.22;;;;;;;;;;5050385;28;20025;-78
2022/07/24 10:39:20;;;;;;;3.45;3.15;;;;;;;;;;5045901;28;20097;-78
2022/07/24 10:42:04;;;;;;;4.03;3.00;;;;;;;;;;5054067;28;20055;-78
2022/07/24 10:44:29;;;;;;;4.70;3.50;;;;;;;;;;5049050;28;20047;-78
2022/07/24 10:47:00;;;;;;;3.78;3.35;;;;;;;;;;5046589;28;20029;-78
2022/07/24 10:49:42;;;;;;;4.38;3.45;;;;;;;;;;5046155;28;20135;-77
2022/07/24 10:52:23;;;;;;;3.63;3.33;;;;;;;;;;5048832;28;20029;-78
2022/07/24 10:54:48;;;;;;;;;;;;;;;;;;5051119;28;20040;-77
2022/07/24 10:57:14;;;;;;;3.40;3.10;;;;;;;;;;5049441;28;20350;-78
2022/07/24 10:59:42;;;;;;;3.30;3.00;;;;;;;;;;5050408;28;20033;-78
2022/07/24 11:02:25;;;;;;;3.65;3.15;;;;;;;;;;5050975;28;20280;-78
2022/07/24 11:05:31;;;;;;;4.20;3.15;;;;;;;;;;5051811;28;20028;-77
2022/07/24 11:08:13;;;;;;;3.30;2.97;;;;;;;;;;5040149;28;20040;-77
2022/07/24 11:10:45;;;;;;;4.03;3.65;;;;;;;;;;5052202;28;20025;-78
2022/07/24 11:13:32;;;;;;;4.18;3.00;;;;;;;;;;5052733;28;20049;-78
2022/07/24 11:16:09;;;;;;;4.13;3.38;;;;;;;;;;5040506;28;20411;-74
2022/07/24 11:18:35;;;;;;;3.97;3.45;;;;;;;;;;5038739;28;20196;-78
2022/07/24 11:21:01;;;;;;;3.40;3.10;;;;;;;;;;5050362;28;20025;-77
2022/07/24 11:23:27;;;;;;;3.45;3.15;;;;;;;;;;5050259;28;20098;-77
2022/07/24 11:26:30;;;;;;;4.82;3.22;;;;;;;;;;5053056;28;20029;-77
2022/07/24 11:29:15;;;;;;;3.50;3.20;;;;;;;;;;5042239;28;20021;-77
2022/07/24 11:31:44;;;;;;;3.80;3.30;;;;;;;;;;5049761;28;20025;-75
2022/07/24 11:34:10;;;;;;;3.55;3.25;;;;;;;;;;5042862;28;20506;-77
2022/07/24 11:36:36;;;;;;;3.55;3.05;;;;;;;;;;5047883;28;20028;-77
2022/07/24 11:39:03;;;;;;;4.45;2.97;;;;;;;;;;5052790;28;20433;-76
2022/07/24 11:41:44;;;;;;;3.20;2.90;;;;;;;;;;5052187;28;20072;-78
2022/07/24 11:44:09;;;;;;;4.32;3.00;;;;;;;;;;5054691;28;20041;-76
2022/07/24 11:46:36;;;;;;;3.28;2.92;;;;;;;;;;5049787;28;20029;-77
2022/07/24 11:49:03;;;;;;;3.30;3.00;;;;;;;;;;5049581;28;20463;-78
2022/07/24 11:51:29;;;;;;;3.38;3.08;;;;;;;;;;5050579;28;20059;-77
2022/07/24 11:53:55;;;;;;;3.80;3.22;;;;;;;;;;5049373;28;20514;-79
2022/07/24 11:56:20;;;;;;;3.30;2.97;;;;;;;;;;5050724;28;20025;-77
2022/07/24 11:58:46;;;;;;;5.87;3.30;;;;;;;;;;5050151;28;20394;-75
2022/07/24 12:01:22;;;;;;;3.50;2.70;;;;;;;;;;5047762;28;20306;-76
2022/07/24 12:03:52;;;;;;;3.30;3.00;;;;;;;;;;5047123;28;20312;-75
2022/07/24 12:06:19;;;;;;;4.00;3.10;;;;;;;;;;5050246;28;20025;-75
2022/07/24 12:08:44;;;;;;;3.92;3.05;;;;;;;;;;5050181;28;20056;-75
2022/07/24 12:11:10;;;;;;;7.10;3.20;;;;;;;;;;5050107;28;20314;-74
2022/07/24 12:13:41;;;;;;;3.78;3.40;;;;;;;;;;5050256;28;20072;-75
2022/07/24 12:16:07;;;;;;;3.58;3.28;;;;;;;;;;5047671;28;20485;-76
2022/07/24 12:18:32;;;;;;;3.25;2.70;;;;;;;;;;5048297;28;20057;-76
2022/07/24 12:21:00;;;;;;;3.67;3.10;;;;;;;;;;5047577;28;20025;-75
2022/07/24 12:23:29;;;;;;;3.58;3.20;;;;;;;;;;5047297;28;20033;-73
2022/07/24 12:25:54;;;;;;;3.00;2.70;;;;;;;;;;5047735;28;20427;-74
2022/07/24 12:28:20;;;;;;;4.60;3.17;;;;;;;;;;5048175;28;20024;-74
2022/07/24 12:30:54;;;;;;;3.70;3.40;;;;;;;;;;5049058;28;20025;-76
2022/07/24 12:33:19;;;;;;;3.80;2.97;;;;;;;;;;5053655;28;20077;-77
2022/07/24 12:36:08;;;;;;;4.57;3.28;;;;;;;;;;5049774;28;20013;-77
2022/07/24 12:38:36;;;;;;;3.70;3.30;;;;;;;;;;5049688;28;20410;-77
2022/07/24 12:41:05;;;;;;;4.65;3.60;;;;;;;;;;5049260;28;20025;-77
2022/07/24 12:43:31;;;;;;;3.50;3.20;;;;;;;;;;5049943;28;20493;-76
2022/07/24 12:46:10;;;;;;;4.25;3.30;;;;;;;;;;5048649;28;20041;-75
2022/07/24 12:48:35;;;;;;;4.70;3.53;;;;;;;;;;5049737;28;20082;-76
2022/07/24 12:51:12;;;;;;;3.92;3.50;;;;;;;;;;5049665;28;20020;-75
2022/07/24 12:53:41;;;;;;;3.58;3.28;;;;;;;;;;5049160;28;20033;-77
2022/07/24 12:56:14;;;;;;;3.75;3.35;;;;;;;;;;5049554;28;20460;-76
2022/07/24 12:59:01;;;;;;;4.65;3.45;;;;;;;;;;5048135;28;20091;-74
2022/07/24 13:01:42;;;;;;;4.00;3.25;;;;;;;;;;5044217;28;20025;-75
2022/07/24 13:04:09;;;;;;;4.93;3.33;;;;;;;;;;5049792;28;20048;-77
2022/07/24 13:06:39;;;;;;;3.88;3.47;;;;;;;;;;5048077;28;20521;-76
2022/07/24 13:09:05;;;;;;;4.22;3.33;;;;;;;;;;5040697;28;20056;-75
2022/07/24 13:11:30;;;;;;;3.97;3.58;;;;;;;;;;5048412;28;20039;-72
2022/07/24 13:13:56;;;;;;;4.55;3.63;;;;;;;;;;5047633;28;20032;-72
2022/07/24 13:16:23;;;;;;;3.95;3.55;;;;;;;;;;5049391;28;20040;-77
2022/07/24 13:18:50;;;;;;;3.97;3.35;;;;;;;;;;5049709;28;20395;-77
2022/07/24 13:21:18;;;;;;;4.65;3.60;;;;;;;;;;5049450;28;20025;-77
2022/07/24 13:23:43;;;;;;;3.83;3.53;;;;;;;;;;5045304;28;20051;-74
2022/07/24 13:26:08;;;;;;;5.00;3.40;;;;;;;;;;5048177;28;20490;-76
2022/07/24 13:28:34;;;;;;;3.63;3.28;;;;;;;;;;5048845;28;20289;-75
2022/07/24 13:30:59;;;;;;;4.10;3.38;;;;;;;;;;5049433;28;20029;-77
2022/07/24 13:33:24;;;;;;;3.40;3.00;;;;;;;;;;5049059;28;20032;-76
2022/07/24 13:35:50;;;;;;;3.50;3.20;;;;;;;;;;5049120;28;20033;-75
2022/07/24 13:38:16;;;;;;;4.68;3.22;;;;;;;;;;5049008;28;20265;-76
2022/07/24 13:40:41;;;;;;;5.15;3.40;;;;;;;;;;5048105;28;20547;-78
2022/07/24 13:43:06;;;;;;;7.70;3.10;;;;;;;;;;5047486;28;20032;-77
2022/07/24 13:45:31;;;;;;;3.75;3.30;;;;;;;;;;5049023;28;20366;-75
2022/07/24 13:47:57;;;;;;;3.72;2.80;;;;;;;;;;5050005;28;20028;-76
2022/07/24 13:50:22;;;;;;;3.60;3.10;;;;;;;;;;5067715;28;20027;-76
2022/07/24 13:52:47;;;;;;;3.73;3.17;;;;;;;;;;5067366;28;20028;-75
2022/07/24 13:55:13;;;;;;;3.88;2.90;;;;;;;;;;5049642;28;20282;-76
2022/07/24 13:57:38;;;;;;;3.80;3.50;;;;;;;;;;5050401;28;20025;-75
2022/07/24 14:00:04;;;;;;;3.50;3.20;;;;;;;;;;5048503;28;20479;-73
2022/07/24 14:02:29;;;;;;;3.95;3.40;;;;;;;;;;5049039;28;20261;-76
2022/07/24 14:04:55;;;;;;;3.40;3.10;;;;;;;;;;5048060;28;20020;-77
2022/07/24 14:07:20;;;;;;;4.65;3.60;;;;;;;;;;5049500;28;20029;-77
2022/07/24 14:09:45;;;;;;;4.25;3.42;;;;;;;;;;5051884;28;20031;-77
2022/07/24 14:12:11;;;;;;;4.50;3.13;;;;;;;;;;5047044;28;20056;-77
2022/07/24 14:14:36;;;;;;;3.55;3.25;;;;;;;;;;5048113;28;20268;-77
2022/07/24 14:17:01;;;;;;;3.97;3.22;;;;;;;;;;5047999;28;20023;-78
2022/07/24 14:19:27;;;;;;;4.50;3.42;;;;;;;;;;5048170;28;20116;-77
2022/07/24 14:21:52;;;;;;;3.88;3.38;;;;;;;;;;5049073;28;20033;-77
2022/07/24 14:24:18;;;;;;;3.80;3.50;;;;;;;;;;5088333;22;20450;-76
2022/07/24 14:26:45;;;;;;;3.38;2.95;;;;;;;;;;5067353;28;20032;-74
2022/07/24 14:29:11;;;;;;;4.13;3.10;;;;;;;;;;5056940;28;20021;-74
2022/07/24 14:31:36;;;;;;;3.58;2.83;;;;;;;;;;5072339;28;20259;-75
2022/07/24 14:34:02;;;;;;;3.75;3.30;;;;;;;;;;5048798;28;20036;-74
2022/07/24 14:36:27;;;;;;;4.47;3.47;;;;;;;;;;5046389;28;20033;-75
2022/07/24 14:38:52;;;;;;;3.40;3.10;;;;;;;;;;5051003;28;20055;-74
2022/07/24 14:41:18;;;;;;;4.47;3.30;;;;;;;;;;5062964;28;20258;-74
2022/07/24 14:43:43;;;;;;;3.47;3.08;;;;;;;;;;5062947;28;20797;-74